createdAt,value
2022-08-17T00:00:05.830Z,3.17
2022-08-17T00:03:00.816Z,3.85
2022-08-17T00:05:32.586Z,3.55
2022-08-17T00:07:59.661Z,4.70
2022-08-17T00:10:27.263Z,3.75
2022-08-17T00:12:54.446Z,5.05
2022-08-17T00:15:23.236Z,4.60
2022-08-17T00:17:51.672Z,4.32
2022-08-17T00:20:19.178Z,7.35
2022-08-17T00:22:50.535Z,10.45
2022-08-17T00:25:20.211Z,12.23
2022-08-17T00:27:47.251Z,3.58
2022-08-17T00:30:14.655Z,5.70
2022-08-17T00:33:14.541Z,7.90
2022-08-17T00:35:34.482Z,3.47
2022-08-17T00:38:01.621Z,9.25
2022-08-17T00:40:42.508Z,7.60
2022-08-17T00:43:36.616Z,11.98
2022-08-17T00:46:17.374Z,5.22
2022-08-17T00:48:45.341Z,5.30
2022-08-17T00:51:34.061Z,4.57
2022-08-17T00:54:15.463Z,4.45
2022-08-17T00:56:46.513Z,6.75
2022-08-17T00:59:17.905Z,5.10
2022-08-17T01:01:45.543Z,10.73
2022-08-17T01:04:14.219Z,7.15
2022-08-17T01:06:43.090Z,6.78
2022-08-17T01:11:39.675Z,6.57
2022-08-17T01:14:09.107Z,4.63
2022-08-17T01:16:37.569Z,6.93
2022-08-17T01:19:16.325Z,4.60
2022-08-17T01:22:01.337Z,7.10
2022-08-17T01:24:28.726Z,7.07
2022-08-17T01:26:56.686Z,11.40
2022-08-17T01:29:25.405Z,5.72
2022-08-17T01:31:58.513Z,10.00
2022-08-17T01:34:38.048Z,5.47
2022-08-17T01:37:11.738Z,6.03
2022-08-17T01:39:42.255Z,5.82
2022-08-17T01:42:23.640Z,5.47
2022-08-17T01:44:56.917Z,5.88
2022-08-17T01:47:24.577Z,5.63
2022-08-17T01:49:51.785Z,6.20
2022-08-17T01:52:19.508Z,5.82
2022-08-17T01:54:49.167Z,5.75
2022-08-17T01:57:16.102Z,5.28
2022-08-17T01:59:43.064Z,5.50
2022-08-17T02:02:10.450Z,6.00
2022-08-17T02:04:37.531Z,5.80
2022-08-17T02:07:04.578Z,5.10
2022-08-17T02:09:31.579Z,5.68
2022-08-17T02:12:37.195Z,5.97
2022-08-17T02:14:51.398Z,5.57
2022-08-17T02:17:18.303Z,5.47
2022-08-17T02:19:45.254Z,5.80
2022-08-17T02:22:13.878Z,6.07
2022-08-17T02:24:58.707Z,6.22
2022-08-17T02:27:36.011Z,5.97
2022-08-17T02:31:01.667Z,5.10
2022-08-17T02:32:54.369Z,5.60
2022-08-17T02:35:22.758Z,5.80
2022-08-17T02:37:55.402Z,6.30
2022-08-17T02:40:35.871Z,6.43
2022-08-17T02:43:04.381Z,5.35
2022-08-17T02:45:31.270Z,6.28
2022-08-17T02:47:58.209Z,6.47
2022-08-17T02:50:26.182Z,6.13
2022-08-17T02:53:01.627Z,6.10
2022-08-17T02:55:38.264Z,6.03
2022-08-17T02:58:05.742Z,6.32
2022-08-17T03:00:36.800Z,6.95
2022-08-17T03:03:06.123Z,6.43
2022-08-17T03:05:35.724Z,8.82
2022-08-17T03:08:03.430Z,7.05
2022-08-17T03:10:31.304Z,7.40
2022-08-17T03:12:58.435Z,6.63
2022-08-17T03:15:28.892Z,6.65
2022-08-17T03:17:56.920Z,5.68
2022-08-17T03:20:25.867Z,7.67
2022-08-17T03:22:56.149Z,7.82
2022-08-17T03:25:37.019Z,7.40
2022-08-17T03:28:06.502Z,6.63
2022-08-17T03:30:34.315Z,9.85
2022-08-17T03:33:03.857Z,7.70
2022-08-17T03:35:33.056Z,7.75
2022-08-17T03:38:01.355Z,8.23
2022-08-17T03:40:55.354Z,8.48
2022-08-17T03:43:16.660Z,10.07
2022-08-17T03:46:02.493Z,7.20
2022-08-17T03:48:48.046Z,8.10
2022-08-17T03:51:38.752Z,7.22
2022-08-17T03:54:25.251Z,7.95
2022-08-17T03:57:07.459Z,9.00
2022-08-17T03:59:36.001Z,8.07
2022-08-17T04:02:17.585Z,7.50
2022-08-17T04:04:44.701Z,7.10
2022-08-17T04:07:11.750Z,7.57
2022-08-17T04:09:38.771Z,7.10
2022-08-17T04:12:06.122Z,7.18
2022-08-17T04:14:47.783Z,7.55
2022-08-17T04:17:35.384Z,8.95
2022-08-17T04:20:16.256Z,6.85
2022-08-17T04:23:11.672Z,7.80
2022-08-17T04:25:42.248Z,7.63
2022-08-17T04:28:15.851Z,7.35
2022-08-17T04:30:45.378Z,6.80
2022-08-17T04:33:16.267Z,6.95
2022-08-17T04:35:50.240Z,7.97
2022-08-17T04:38:23.388Z,7.88
2022-08-17T04:41:09.927Z,10.27
2022-08-17T04:43:38.433Z,7.32
2022-08-17T04:46:08.803Z,8.02
2022-08-17T04:48:39.776Z,8.25
2022-08-17T04:51:10.370Z,10.80
2022-08-17T04:53:39.889Z,6.90
2022-08-17T04:56:07.283Z,8.20
2022-08-17T04:58:34.319Z,7.40
2022-08-17T05:01:01.838Z,6.35
2022-08-17T05:03:29.301Z,6.57
2022-08-17T05:05:56.205Z,6.57
2022-08-17T05:08:23.152Z,7.03
2022-08-17T05:10:50.510Z,6.78
2022-08-17T05:13:22.116Z,6.47
2022-08-17T05:15:52.987Z,7.65
2022-08-17T05:18:19.917Z,7.57
2022-08-17T05:20:46.889Z,7.65
2022-08-17T05:23:16.779Z,7.90
2022-08-17T05:25:47.650Z,8.25
2022-08-17T05:28:16.903Z,7.82
2022-08-17T05:30:49.348Z,8.27
2022-08-17T05:33:23.055Z,7.68
2022-08-17T05:35:52.908Z,6.75
2022-08-17T05:38:22.568Z,7.47
2022-08-17T05:40:50.396Z,8.30
2022-08-17T05:43:23.518Z,9.27
2022-08-17T05:45:55.521Z,8.48
2022-08-17T05:48:39.406Z,8.75
2022-08-17T05:51:32.154Z,8.38
2022-08-17T05:54:20.762Z,6.88
2022-08-17T05:57:11.937Z,6.85
2022-08-17T06:00:14.327Z,7.15
2022-08-17T06:02:47.085Z,6.35
2022-08-17T06:05:19.958Z,5.85
2022-08-17T06:08:14.616Z,7.20
2022-08-17T06:10:53.989Z,7.10
2022-08-17T06:13:52.073Z,5.95
2022-08-17T06:16:32.945Z,5.38
2022-08-17T06:19:05.889Z,6.30
2022-08-17T06:21:39.734Z,4.90
2022-08-17T06:24:17.158Z,6.05
2022-08-17T06:26:45.951Z,5.97
2022-08-17T06:29:24.839Z,7.47
2022-08-17T06:31:52.276Z,6.88
2022-08-17T06:34:21.113Z,5.70
2022-08-17T06:39:58.490Z,5.93
2022-08-17T06:43:05.460Z,5.07
2022-08-17T06:48:24.965Z,4.82
2022-08-17T06:51:14.957Z,5.53
2022-08-17T06:53:52.047Z,5.28
2022-08-17T06:56:52.777Z,6.03
2022-08-17T06:59:35.677Z,4.45
2022-08-17T07:02:29.219Z,5.40
2022-08-17T07:05:14.330Z,5.43
2022-08-17T07:08:02.058Z,3.40
2022-08-17T07:10:36.199Z,4.78
2022-08-17T07:13:38.307Z,4.15
2022-08-17T07:16:16.017Z,4.80
2022-08-17T07:18:43.931Z,4.90
2022-08-17T07:21:26.687Z,3.90
2022-08-17T07:24:30.119Z,3.67
2022-08-17T07:27:17.118Z,4.07
2022-08-17T07:29:50.617Z,4.53
2022-08-17T07:32:22.997Z,2.90
2022-08-17T07:35:11.208Z,4.55
2022-08-17T07:40:20.720Z,3.88
2022-08-17T07:43:11.469Z,4.18
2022-08-17T07:46:30.233Z,4.90
2022-08-17T07:49:16.711Z,4.22
2022-08-17T07:51:43.960Z,3.60
2022-08-17T07:54:22.508Z,3.17
2022-08-17T07:57:25.404Z,3.33
2022-08-17T08:00:02.158Z,3.72
2022-08-17T08:02:42.406Z,3.33
2022-08-17T08:05:49.456Z,3.50
2022-08-17T08:08:27.307Z,3.20
2022-08-17T08:10:59.888Z,2.70
2022-08-17T08:13:30.461Z,2.90
2022-08-17T08:16:14.087Z,3.15
2022-08-17T08:18:55.066Z,3.75
2022-08-17T08:21:51.536Z,3.08
2022-08-17T08:25:03.315Z,3.20
2022-08-17T08:28:11.498Z,3.53
2022-08-17T08:33:32.171Z,2.17
2022-08-17T08:36:11.174Z,2.70
2022-08-17T08:39:09.353Z,3.55
2022-08-17T08:45:01.051Z,3.13
2022-08-17T08:47:23.611Z,2.17
2022-08-17T08:50:37.210Z,1.60
2022-08-17T08:53:30.967Z,1.70
2022-08-17T08:56:04.812Z,1.30
2022-08-17T08:58:41.773Z,1.67
2022-08-17T09:01:31.375Z,1.57
2022-08-17T09:04:24.197Z,1.75
2022-08-17T09:07:16.402Z,1.25
2022-08-17T09:09:59.844Z,2.22
2022-08-17T09:12:53.563Z,2.20
2022-08-17T09:15:25.855Z,1.70
2022-08-17T09:18:59.178Z,1.60
2022-08-17T09:20:57.509Z,2.33
2022-08-17T09:23:44.889Z,2.08
2022-08-17T09:26:22.234Z,2.23
2022-08-17T09:28:56.018Z,1.67
2022-08-17T09:31:46.494Z,1.65
2022-08-17T09:34:28.176Z,1.58
2022-08-17T09:37:18.845Z,1.73
2022-08-17T09:40:16.647Z,2.03
2022-08-17T09:43:09.830Z,2.00
2022-08-17T09:45:46.522Z,1.80
2022-08-17T09:48:50.568Z,2.00
2022-08-17T09:51:24.738Z,2.22
2022-08-17T09:53:52.068Z,2.22
2022-08-17T09:56:18.980Z,1.45
2022-08-17T09:58:56.607Z,2.13
2022-08-17T10:01:57.240Z,2.05
2022-08-17T10:04:48.317Z,1.50
2022-08-17T10:07:41.561Z,1.75
2022-08-17T10:10:14.802Z,1.73
2022-08-17T10:13:05.472Z,1.63
2022-08-17T10:16:29.388Z,1.35
2022-08-17T10:19:09.597Z,1.20
2022-08-17T10:22:00.788Z,1.55
2022-08-17T10:25:01.877Z,1.40
2022-08-17T10:27:52.971Z,2.00
2022-08-17T10:30:23.402Z,1.52
2022-08-17T10:32:55.496Z,1.45
2022-08-17T10:35:41.125Z,1.90
2022-08-17T10:38:26.222Z,2.60
2022-08-17T10:40:56.338Z,2.13
2022-08-17T10:44:40.231Z,1.50
2022-08-17T10:47:01.657Z,1.90
2022-08-17T10:49:34.726Z,1.73
2022-08-17T10:52:25.007Z,1.80
2022-08-17T10:54:58.212Z,2.00
2022-08-17T10:57:35.016Z,1.83
2022-08-17T11:00:17.453Z,1.63
2022-08-17T11:02:50.338Z,1.70
2022-08-17T11:05:52.465Z,2.10
2022-08-17T11:08:48.710Z,2.30
2022-08-17T11:11:15.566Z,2.15
2022-08-17T11:13:43.344Z,1.48
2022-08-17T11:16:28.586Z,1.27
2022-08-17T11:19:10.734Z,2.10
2022-08-17T11:22:04.853Z,1.60
2022-08-17T11:24:40.067Z,1.98
2022-08-17T11:27:33.307Z,1.95
2022-08-17T11:30:02.095Z,1.48
2022-08-17T11:32:34.810Z,1.90
2022-08-17T11:35:07.855Z,2.00
2022-08-17T11:38:15.926Z,2.58
2022-08-17T11:40:52.201Z,1.67
2022-08-17T11:43:43.057Z,1.75
2022-08-17T11:47:00.985Z,1.77
2022-08-17T11:50:16.916Z,2.60
2022-08-17T11:52:49.811Z,2.40
2022-08-17T11:55:35.857Z,2.55
2022-08-17T11:58:06.690Z,3.13
2022-08-17T12:00:45.523Z,2.70
2022-08-17T12:03:33.132Z,3.55
2022-08-17T12:06:17.647Z,2.70
2022-08-17T12:09:00.661Z,2.70
2022-08-17T12:12:12.894Z,3.28
2022-08-17T12:17:40.892Z,2.97
2022-08-17T12:20:41.093Z,2.50
2022-08-17T12:23:24.759Z,2.33
2022-08-17T12:26:04.092Z,2.22
2022-08-17T12:28:35.337Z,2.60
2022-08-17T12:31:12.013Z,2.22
2022-08-17T12:33:43.970Z,1.90
2022-08-17T12:36:15.376Z,1.70
2022-08-17T12:39:12.964Z,1.48
2022-08-17T12:41:47.311Z,2.40
2022-08-17T12:44:24.653Z,1.80
2022-08-17T12:47:07.884Z,2.07
2022-08-17T12:49:42.428Z,2.63
2022-08-17T12:52:12.608Z,2.35
2022-08-17T12:54:51.541Z,2.58
2022-08-17T12:57:25.548Z,2.47
2022-08-17T13:00:00.048Z,1.75
2022-08-17T13:02:45.265Z,2.35
2022-08-17T13:05:29.944Z,1.40
2022-08-17T13:07:59.327Z,2.00
2022-08-17T13:10:35.603Z,1.50
2022-08-17T13:13:21.658Z,2.10
2022-08-17T13:15:53.319Z,1.58
2022-08-17T13:18:46.019Z,1.85
2022-08-17T13:21:30.732Z,1.63
2022-08-17T13:24:00.667Z,1.70
2022-08-17T13:27:08.632Z,1.83
2022-08-17T13:29:51.491Z,1.63
2022-08-17T13:32:33.414Z,1.80
2022-08-17T13:35:12.198Z,1.73
2022-08-17T13:38:01.593Z,1.48
2022-08-17T13:40:35.837Z,1.90
2022-08-17T13:43:05.526Z,1.60
2022-08-17T13:45:39.156Z,2.33
2022-08-17T13:48:11.947Z,1.77
2022-08-17T13:50:54.820Z,1.75
2022-08-17T13:53:26.826Z,1.90
2022-08-17T13:55:59.547Z,1.83
2022-08-17T13:58:30.250Z,1.90
2022-08-17T14:00:57.424Z,1.92
2022-08-17T14:03:25.026Z,2.00
2022-08-17T14:05:53.051Z,1.75
2022-08-17T14:08:20.953Z,2.08
2022-08-17T14:10:58.823Z,1.60
2022-08-17T14:13:25.779Z,1.73
2022-08-17T14:15:54.797Z,1.98
2022-08-17T14:18:35.699Z,1.73
2022-08-17T14:21:11.975Z,2.60
2022-08-17T14:23:38.964Z,2.00
2022-08-17T14:26:06.204Z,1.70
2022-08-17T14:28:33.138Z,2.22
2022-08-17T14:31:03.624Z,3.17
2022-08-17T14:33:30.567Z,2.80
2022-08-17T14:35:57.825Z,2.13
2022-08-17T14:38:25.381Z,2.13
2022-08-17T14:40:52.652Z,2.17
2022-08-17T14:43:20.608Z,3.00
2022-08-17T14:45:47.681Z,2.58
2022-08-17T14:48:14.663Z,2.03
2022-08-17T14:50:43.385Z,1.63
2022-08-17T14:53:13.641Z,1.92
2022-08-17T14:55:40.864Z,1.85
2022-08-17T14:58:09.252Z,2.25
2022-08-17T15:00:37.447Z,1.95
2022-08-17T15:03:05.537Z,2.03
2022-08-17T15:05:36.814Z,1.60
2022-08-17T15:08:05.750Z,1.55
2022-08-17T15:10:33.092Z,1.77
2022-08-17T15:13:00.633Z,1.50
2022-08-17T15:15:28.857Z,1.35
2022-08-17T15:20:28.188Z,1.17
2022-08-17T15:22:57.425Z,1.45
2022-08-17T15:25:32.777Z,20.10
2022-08-17T15:28:00.591Z,1.30
2022-08-17T15:30:28.048Z,1.30
2022-08-17T15:32:57.820Z,1.08
2022-08-17T15:35:29.169Z,1.50
2022-08-17T15:38:08.353Z,1.52
2022-08-17T15:40:41.462Z,1.05
2022-08-17T15:43:12.355Z,1.63
2022-08-17T15:45:40.304Z,1.13
2022-08-17T15:48:07.738Z,0.90
2022-08-17T15:50:35.606Z,1.10
2022-08-17T15:53:03.763Z,1.00
2022-08-17T15:57:58.708Z,2.17
2022-08-17T16:00:28.418Z,0.90
2022-08-17T16:03:46.978Z,0.95
2022-08-17T16:05:43.727Z,0.90
2022-08-17T16:08:11.265Z,1.20
2022-08-17T16:10:38.491Z,1.10
2022-08-17T16:13:05.478Z,0.73
2022-08-17T16:15:44.281Z,1.45
2022-08-17T16:18:11.695Z,2.55
2022-08-17T16:20:38.720Z,1.48
2022-08-17T16:23:05.912Z,1.25
2022-08-17T16:25:52.000Z,1.42
2022-08-17T16:28:20.740Z,1.70
2022-08-17T16:30:47.732Z,1.45
2022-08-17T16:33:16.810Z,1.10
2022-08-17T16:35:44.141Z,1.17
2022-08-17T16:38:12.811Z,1.20
2022-08-17T16:40:40.664Z,1.00
2022-08-17T16:43:10.768Z,0.90
2022-08-17T16:45:40.882Z,1.02
2022-08-17T16:48:09.463Z,1.20
2022-08-17T16:50:36.997Z,1.13
2022-08-17T16:53:10.907Z,0.93
2022-08-17T16:55:38.628Z,1.60
2022-08-17T16:58:06.536Z,1.40
2022-08-17T17:00:34.363Z,1.33
2022-08-17T17:03:19.768Z,1.98
2022-08-17T17:05:58.046Z,1.63
2022-08-17T17:08:44.411Z,1.52
2022-08-17T17:11:37.177Z,1.40
2022-08-17T17:14:30.109Z,1.20
2022-08-17T17:17:28.193Z,1.00
2022-08-17T17:23:05.429Z,1.45
2022-08-17T17:25:45.314Z,1.38
2022-08-17T17:28:30.322Z,1.55
2022-08-17T17:31:14.591Z,2.25
2022-08-17T17:33:51.080Z,2.80
2022-08-17T17:36:41.843Z,2.15
2022-08-17T17:39:29.519Z,2.00
2022-08-17T17:41:59.537Z,2.85
2022-08-17T17:44:32.347Z,2.13
2022-08-17T17:47:02.746Z,3.20
2022-08-17T17:49:45.427Z,3.22
2022-08-17T17:52:19.585Z,2.67
2022-08-17T17:55:13.304Z,7.93
2022-08-17T17:58:01.459Z,5.53
2022-08-17T18:00:48.219Z,4.70
2022-08-17T18:03:20.927Z,6.60
2022-08-17T18:06:12.649Z,4.75
2022-08-17T18:08:41.816Z,4.22
2022-08-17T18:11:25.159Z,3.63
2022-08-17T18:14:18.709Z,4.93
2022-08-17T18:16:47.621Z,3.08
2022-08-17T18:19:20.507Z,2.90
2022-08-17T18:22:02.928Z,3.78
2022-08-17T18:24:40.320Z,3.60
2022-08-17T18:27:23.513Z,3.17
2022-08-17T18:29:53.727Z,3.53
2022-08-17T18:32:32.060Z,2.60
2022-08-17T18:35:09.635Z,4.88
2022-08-17T18:37:50.382Z,2.53
2022-08-17T18:40:17.464Z,2.95
2022-08-17T18:43:13.068Z,2.30
2022-08-17T18:45:43.075Z,2.25
2022-08-17T18:48:21.382Z,2.42
2022-08-17T18:50:48.889Z,9.20
2022-08-17T18:53:39.679Z,12.85
2022-08-17T18:56:30.587Z,12.25
2022-08-17T18:59:28.386Z,7.50
2022-08-17T19:02:09.983Z,9.93
2022-08-17T19:05:02.040Z,9.75
2022-08-17T19:07:41.875Z,5.43
2022-08-17T19:10:46.424Z,3.50
2022-08-17T19:13:24.376Z,3.10
2022-08-17T19:16:15.707Z,9.67
2022-08-17T19:18:52.703Z,2.67
2022-08-17T19:21:36.747Z,3.97
2022-08-17T19:24:09.781Z,3.05
2022-08-17T19:26:51.081Z,3.17
2022-08-17T19:29:34.254Z,2.50
2022-08-17T19:32:02.169Z,3.00
2022-08-17T19:34:34.830Z,2.60
2022-08-17T19:37:07.053Z,2.63
2022-08-17T19:39:58.423Z,2.60
2022-08-17T19:42:31.431Z,2.67
2022-08-17T19:45:19.606Z,3.28
2022-08-17T19:48:01.677Z,2.42
2022-08-17T19:50:29.881Z,2.58
2022-08-17T19:53:04.104Z,2.28
2022-08-17T19:55:57.731Z,2.47
2022-08-17T19:58:52.064Z,2.78
2022-08-17T20:01:34.834Z,2.75
2022-08-17T20:04:31.840Z,2.47
2022-08-17T20:07:16.205Z,3.37
2022-08-17T20:09:54.256Z,2.50
2022-08-17T20:12:25.991Z,2.67
2022-08-17T20:14:57.550Z,2.28
2022-08-17T20:17:30.534Z,1.98
2022-08-17T20:20:27.372Z,2.67
2022-08-17T20:23:08.054Z,2.33
2022-08-17T20:25:48.046Z,2.72
2022-08-17T20:28:28.167Z,3.80
2022-08-17T20:30:56.010Z,2.50
2022-08-17T20:33:37.405Z,2.50
2022-08-17T20:36:10.100Z,2.13
2022-08-17T20:38:42.918Z,2.38
2022-08-17T20:41:20.993Z,2.90
2022-08-17T20:43:51.367Z,2.08
2022-08-17T20:46:36.690Z,2.70
2022-08-17T20:49:16.642Z,2.60
2022-08-17T20:52:10.073Z,2.30
2022-08-17T20:54:54.916Z,2.10
2022-08-17T20:57:37.098Z,2.42
2022-08-17T21:00:16.889Z,2.85
2022-08-17T21:02:49.703Z,3.28
2022-08-17T21:05:30.354Z,2.85
2022-08-17T21:08:01.350Z,2.35
2022-08-17T21:10:34.169Z,2.28
2022-08-17T21:13:16.263Z,2.85
2022-08-17T21:16:05.418Z,3.42
2022-08-17T21:18:55.058Z,3.03
2022-08-17T21:21:43.328Z,1.95
2022-08-17T21:24:26.115Z,2.47
2022-08-17T21:27:01.515Z,2.60
2022-08-17T21:29:34.095Z,2.67
2022-08-17T21:32:08.483Z,2.40
2022-08-17T21:34:45.026Z,2.78
2022-08-17T21:37:23.335Z,3.40
2022-08-17T21:40:10.390Z,3.03
2022-08-17T21:42:45.064Z,3.03
2022-08-17T21:45:22.268Z,3.20
2022-08-17T21:48:05.567Z,3.10
2022-08-17T21:50:32.741Z,2.55
2022-08-17T21:53:02.401Z,2.80
2022-08-17T21:55:32.710Z,10.15
2022-08-17T21:58:24.163Z,8.32
2022-08-17T22:01:12.094Z,4.53
2022-08-17T22:03:39.686Z,3.83
2022-08-17T22:06:25.834Z,3.53
2022-08-17T22:09:10.148Z,3.80
2022-08-17T22:11:52.896Z,3.83
2022-08-17T22:14:25.991Z,4.43
2022-08-17T22:17:34.544Z,3.90
2022-08-17T22:20:09.541Z,4.28
2022-08-17T22:23:18.121Z,3.92
2022-08-17T22:26:06.755Z,4.05
2022-08-17T22:28:51.861Z,3.83
2022-08-17T22:31:22.308Z,4.80
2022-08-17T22:34:07.734Z,3.42
2022-08-17T22:36:39.189Z,3.85
2022-08-17T22:39:08.857Z,3.88
2022-08-17T22:41:50.840Z,4.05
2022-08-17T22:47:02.826Z,3.80
2022-08-17T22:49:38.791Z,3.97
2022-08-17T22:52:29.132Z,4.22
2022-08-17T22:55:30.588Z,3.92
2022-08-17T22:58:16.348Z,3.97
2022-08-17T23:00:46.597Z,4.70
2022-08-17T23:03:20.625Z,4.57
2022-08-17T23:06:03.745Z,4.53
2022-08-17T23:08:31.212Z,4.63
2022-08-17T23:11:00.282Z,4.00
2022-08-17T23:13:28.015Z,4.53
2022-08-17T23:15:54.921Z,4.25
2022-08-17T23:18:23.832Z,5.38
2022-08-17T23:23:23.422Z,5.63
2022-08-17T23:25:50.785Z,3.97
2022-08-17T23:28:18.987Z,4.18
2022-08-17T23:30:48.639Z,4.38
2022-08-17T23:33:30.147Z,4.70
2022-08-17T23:36:00.475Z,5.03
2022-08-17T23:38:28.435Z,4.60
2022-08-17T23:40:56.894Z,5.00
2022-08-17T23:43:28.204Z,5.78
2022-08-17T23:45:59.897Z,4.93
2022-08-17T23:48:34.949Z,4.25
2022-08-17T23:51:06.153Z,5.28
2022-08-17T23:53:36.440Z,5.60
2022-08-17T23:56:09.144Z,7.43
2022-08-17T23:58:42.529Z,6.88
